createdAt,value
2018-02-22T00:00:28.920Z,76.40
2018-02-22T00:02:56.377Z,76.20
2018-02-22T00:05:23.833Z,76.50
2018-02-22T00:07:51.260Z,76.60
2018-02-22T00:10:18.690Z,76.50
2018-02-22T00:12:46.137Z,76.80
2018-02-22T00:15:14.484Z,77.30
2018-02-22T00:17:41.935Z,77.80
2018-02-22T00:20:09.376Z,77.50
2018-02-22T00:22:37.572Z,77.80
2018-02-22T00:25:05.003Z,77.80
2018-02-22T00:27:32.442Z,77.90
2018-02-22T00:30:00.656Z,78.20
2018-02-22T00:32:28.107Z,78.20
2018-02-22T00:34:55.534Z,78.00
2018-02-22T00:37:23.725Z,78.00
2018-02-22T00:39:51.156Z,78.00
2018-02-22T00:42:19.360Z,77.60
2018-02-22T00:44:46.816Z,77.60
2018-02-22T00:47:14.635Z,77.60
2018-02-22T00:49:42.049Z,77.70
2018-02-22T00:52:09.504Z,78.60
2018-02-22T00:54:36.941Z,79.40
2018-02-22T00:57:04.382Z,79.80
2018-02-22T00:59:31.807Z,80.60
2018-02-22T01:02:00.023Z,80.10
2018-02-22T01:04:28.220Z,79.70
2018-02-22T01:06:55.653Z,79.70
2018-02-22T01:09:23.864Z,79.90
2018-02-22T01:11:51.293Z,79.90
2018-02-22T01:14:19.507Z,80.30
2018-02-22T01:16:46.937Z,80.30
2018-02-22T01:19:14.637Z,80.00
2018-02-22T01:21:42.090Z,79.80
2018-02-22T01:24:09.504Z,80.00
2018-02-22T01:26:37.759Z,79.90
2018-02-22T01:29:05.129Z,79.90
2018-02-22T01:31:33.364Z,79.80
2018-02-22T01:34:00.797Z,79.80
2018-02-22T01:36:28.247Z,79.90
2018-02-22T01:38:55.665Z,80.00
2018-02-22T01:41:23.873Z,80.50
2018-02-22T01:43:51.313Z,80.00
2018-02-22T01:46:19.516Z,79.90
2018-02-22T01:48:46.949Z,79.90
2018-02-22T01:51:14.757Z,79.80
2018-02-22T01:53:42.204Z,80.60
2018-02-22T01:56:09.645Z,79.70
2018-02-22T01:58:37.074Z,79.90
2018-02-22T02:01:05.278Z,80.20
2018-02-22T02:03:32.716Z,80.20
2018-02-22T02:06:00.900Z,80.50
2018-02-22T02:08:28.365Z,80.50
2018-02-22T02:10:55.792Z,80.70
2018-02-22T02:13:23.229Z,80.70
2018-02-22T02:15:50.666Z,80.60
2018-02-22T02:18:18.105Z,80.70
2018-02-22T02:20:45.580Z,81.20
2018-02-22T02:23:12.987Z,81.20
2018-02-22T02:25:41.201Z,81.50
2018-02-22T02:28:08.637Z,82.30
2018-02-22T02:30:36.075Z,81.20
2018-02-22T02:33:04.273Z,81.00
2018-02-22T02:35:31.698Z,81.50
2018-02-22T02:37:59.912Z,81.40
2018-02-22T02:40:27.366Z,81.20
2018-02-22T02:42:54.810Z,81.40
2018-02-22T02:45:23.013Z,81.50
2018-02-22T02:47:50.460Z,81.40
2018-02-22T02:50:17.890Z,81.30
2018-02-22T02:52:46.103Z,81.40
2018-02-22T02:55:13.554Z,81.40
2018-02-22T02:57:40.989Z,81.20
2018-02-22T03:00:08.473Z,81.20
2018-02-22T03:02:35.905Z,81.40
2018-02-22T03:05:03.345Z,81.60
2018-02-22T03:07:31.968Z,81.70
2018-02-22T03:09:59.405Z,81.70
2018-02-22T03:12:26.841Z,81.60
2018-02-22T03:14:54.272Z,81.60
2018-02-22T03:17:21.716Z,81.80
2018-02-22T03:19:49.280Z,81.80
2018-02-22T03:22:16.703Z,81.50
2018-02-22T03:24:44.903Z,81.80
2018-02-22T03:27:12.332Z,81.80
2018-02-22T03:29:39.769Z,81.80
2018-02-22T03:32:07.964Z,81.80
2018-02-22T03:34:35.513Z,81.80
2018-02-22T03:37:02.967Z,82.20
2018-02-22T03:39:31.160Z,82.30
2018-02-22T03:41:58.583Z,82.20
2018-02-22T03:44:26.790Z,83.50
2018-02-22T03:46:54.235Z,82.60
2018-02-22T03:49:22.425Z,83.10
2018-02-22T03:51:49.868Z,83.10
2018-02-22T03:54:18.056Z,83.20
2018-02-22T03:56:45.481Z,83.20
2018-02-22T03:59:13.690Z,83.80
2018-02-22T04:01:41.126Z,83.70
2018-02-22T04:04:09.320Z,84.40
2018-02-22T04:06:36.751Z,84.30
2018-02-22T04:09:04.963Z,84.60
2018-02-22T04:11:32.400Z,84.60
2018-02-22T04:14:00.588Z,84.50
2018-02-22T04:16:28.033Z,84.50
2018-02-22T04:18:56.233Z,84.30
2018-02-22T04:21:23.656Z,84.30
2018-02-22T04:23:51.865Z,84.90
2018-02-22T04:26:19.290Z,84.90
2018-02-22T04:28:46.730Z,84.80
2018-02-22T04:31:15.836Z,84.90
2018-02-22T04:33:44.042Z,84.60
2018-02-22T04:36:11.477Z,84.60
2018-02-22T04:38:39.681Z,84.50
2018-02-22T04:41:07.097Z,84.50
2018-02-22T04:43:35.308Z,84.20
2018-02-22T04:46:02.725Z,84.20
2018-02-22T04:48:30.929Z,83.80
2018-02-22T04:50:58.344Z,83.70
2018-02-22T04:53:25.774Z,83.70
2018-02-22T04:55:53.198Z,84.00
2018-02-22T04:58:22.206Z,83.80
2018-02-22T05:00:49.652Z,83.80
2018-02-22T05:03:17.088Z,83.70
2018-02-22T05:05:45.296Z,84.30
2018-02-22T05:08:12.721Z,84.30
2018-02-22T05:10:40.932Z,84.80
2018-02-22T05:13:08.360Z,84.70
2018-02-22T05:15:36.159Z,84.80
2018-02-22T05:18:03.593Z,84.90
2018-02-22T05:20:31.029Z,85.10
2018-02-22T05:22:59.225Z,86.30
2018-02-22T05:25:26.658Z,86.30
2018-02-22T05:27:54.844Z,86.80
2018-02-22T05:30:23.153Z,86.30
2018-02-22T05:32:50.556Z,86.20
2018-02-22T05:35:18.018Z,85.80
2018-02-22T05:37:45.440Z,85.80
2018-02-22T05:40:12.878Z,85.50
2018-02-22T05:42:40.338Z,85.30
2018-02-22T05:45:07.753Z,85.50
2018-02-22T05:47:35.940Z,85.40
2018-02-22T05:50:03.369Z,85.40
2018-02-22T05:52:30.798Z,85.50
2018-02-22T05:54:58.225Z,85.60
2018-02-22T05:57:25.648Z,85.20
2018-02-22T05:59:53.081Z,85.20
2018-02-22T06:02:20.515Z,85.30
2018-02-22T06:04:47.966Z,85.60
2018-02-22T06:07:15.372Z,85.30
2018-02-22T06:09:42.809Z,85.30
2018-02-22T06:12:11.000Z,85.20
2018-02-22T06:14:38.440Z,85.20
2018-02-22T06:17:05.878Z,85.90
2018-02-22T06:19:33.326Z,85.80
2018-02-22T06:22:00.765Z,86.50
2018-02-22T06:24:28.224Z,87.60
2018-02-22T06:26:56.423Z,85.70
2018-02-22T06:29:23.862Z,85.70
2018-02-22T06:31:51.306Z,85.50
2018-02-22T06:34:19.501Z,85.20
2018-02-22T06:36:46.925Z,85.10
2018-02-22T06:39:16.106Z,85.10
2018-02-22T06:41:44.173Z,85.10
2018-02-22T06:44:11.593Z,85.50
2018-02-22T06:46:39.023Z,85.60
2018-02-22T06:49:06.462Z,85.90
2018-02-22T06:51:34.655Z,85.40
2018-02-22T06:54:02.085Z,85.40
2018-02-22T06:56:29.520Z,86.40
2018-02-22T06:58:56.946Z,86.70
2018-02-22T07:01:24.381Z,87.20
2018-02-22T07:03:52.578Z,87.20
2018-02-22T07:06:20.003Z,87.10
2018-02-22T07:08:48.199Z,86.60
2018-02-22T07:11:15.642Z,86.40
2018-02-22T07:13:43.827Z,86.00
2018-02-22T07:16:11.260Z,86.00
2018-02-22T07:18:39.477Z,85.60
2018-02-22T07:21:06.952Z,85.30
2018-02-22T07:23:34.383Z,85.50
2018-02-22T07:26:01.814Z,85.60
2018-02-22T07:28:30.024Z,85.20
2018-02-22T07:30:57.474Z,85.20
2018-02-22T07:33:24.904Z,86.00
2018-02-22T07:35:53.106Z,86.10
2018-02-22T07:38:20.530Z,86.10
2018-02-22T07:40:49.492Z,86.20
2018-02-22T07:43:16.934Z,86.20
2018-02-22T07:45:44.377Z,86.50
2018-02-22T07:48:11.831Z,86.60
2018-02-22T07:50:39.273Z,86.50
2018-02-22T07:53:06.696Z,86.40
2018-02-22T07:55:34.128Z,85.80
2018-02-22T07:58:01.551Z,85.10
2018-02-22T08:00:28.988Z,84.50
2018-02-22T08:02:57.177Z,83.90
2018-02-22T08:05:24.609Z,83.80
2018-02-22T08:07:52.930Z,78.40
2018-02-22T08:10:20.369Z,78.30
2018-02-22T08:12:47.788Z,75.00
2018-02-22T08:15:15.748Z,71.10
2018-02-22T08:17:43.156Z,66.20
2018-02-22T08:20:10.597Z,60.70
2018-02-22T08:22:38.813Z,57.50
2018-02-22T08:25:06.241Z,57.50
2018-02-22T08:27:33.673Z,54.90
2018-02-22T08:30:01.882Z,51.40
2018-02-22T08:32:29.361Z,51.20
2018-02-22T08:34:56.790Z,51.50
2018-02-22T08:37:24.234Z,50.80
2018-02-22T08:39:52.427Z,51.90
2018-02-22T08:42:19.856Z,51.80
2018-02-22T08:44:48.056Z,52.80
2018-02-22T08:47:15.776Z,52.70
2018-02-22T08:49:43.985Z,52.50
2018-02-22T08:52:12.205Z,50.90
2018-02-22T08:54:39.637Z,50.90
2018-02-22T08:57:07.066Z,47.60
2018-02-22T08:59:35.262Z,44.20
2018-02-22T09:02:02.688Z,44.20
2018-02-22T09:04:30.136Z,43.90
2018-02-22T09:06:57.579Z,42.90
2018-02-22T09:09:24.995Z,40.90
2018-02-22T09:11:52.438Z,39.00
2018-02-22T09:14:20.638Z,35.90
2018-02-22T09:16:48.070Z,35.80
2018-02-22T09:19:17.029Z,35.10
2018-02-22T09:21:44.477Z,35.10
2018-02-22T09:24:11.930Z,33.80
2018-02-22T09:26:40.142Z,33.10
2018-02-22T09:29:08.342Z,33.40
2018-02-22T09:31:35.810Z,33.40
2018-02-22T09:34:03.248Z,33.30
2018-02-22T09:36:30.706Z,31.80
2018-02-22T09:38:58.887Z,31.60
2018-02-22T09:41:26.412Z,31.60
2018-02-22T09:43:53.836Z,30.40
2018-02-22T09:46:21.281Z,30.30
2018-02-22T09:48:48.739Z,30.10
2018-02-22T09:51:16.332Z,29.60
2018-02-22T09:53:43.772Z,29.50
2018-02-22T09:56:11.243Z,28.70
2018-02-22T09:58:38.679Z,28.20
2018-02-22T10:01:06.153Z,27.50
2018-02-22T10:03:33.593Z,28.50
2018-02-22T10:06:01.080Z,28.60
2018-02-22T10:08:28.599Z,28.30
2018-02-22T10:10:56.029Z,29.30
2018-02-22T10:13:23.461Z,29.50
2018-02-22T10:15:50.901Z,29.30
2018-02-22T10:18:18.353Z,29.40
2018-02-22T10:20:45.769Z,29.50
2018-02-22T10:23:13.213Z,29.60
2018-02-22T10:25:41.404Z,29.30
2018-02-22T10:28:08.833Z,29.30
2018-02-22T10:30:37.053Z,29.90
2018-02-22T10:33:04.506Z,29.40
2018-02-22T10:35:31.938Z,29.20
2018-02-22T10:37:59.375Z,29.30
2018-02-22T10:40:27.577Z,29.20
2018-02-22T10:42:55.009Z,29.20
2018-02-22T10:45:23.221Z,28.20
2018-02-22T10:47:50.645Z,28.20
2018-02-22T10:50:18.079Z,27.40
2018-02-22T10:52:45.504Z,27.30
2018-02-22T10:55:12.928Z,26.80
2018-02-22T10:57:40.372Z,26.70
2018-02-22T11:00:08.573Z,26.90
2018-02-22T11:02:42.092Z,26.80
2018-02-22T11:05:09.526Z,27.60
2018-02-22T11:07:36.975Z,26.70
2018-02-22T11:10:04.416Z,27.30
2018-02-22T11:12:31.860Z,27.20
2018-02-22T11:14:59.292Z,27.50
2018-02-22T11:17:26.744Z,27.10
2018-02-22T11:19:54.171Z,26.90
2018-02-22T11:22:21.609Z,26.30
2018-02-22T11:24:49.806Z,25.50
2018-02-22T11:27:17.240Z,25.50
2018-02-22T11:29:45.439Z,25.40
2018-02-22T11:32:12.875Z,25.30
2018-02-22T11:34:41.072Z,25.90
2018-02-22T11:37:08.528Z,25.80
2018-02-22T11:39:35.961Z,25.70
2018-02-22T11:42:04.180Z,25.70
2018-02-22T11:44:31.622Z,25.70
2018-02-22T11:46:59.050Z,25.50
2018-02-22T11:49:27.260Z,25.00
2018-02-22T11:51:54.687Z,25.00
2018-02-22T11:54:22.900Z,25.80
2018-02-22T11:56:50.372Z,25.80
2018-02-22T11:59:18.592Z,25.00
2018-02-22T12:01:46.017Z,25.00
2018-02-22T12:04:13.458Z,24.70
2018-02-22T12:06:40.884Z,24.80
2018-02-22T12:09:08.319Z,25.30
2018-02-22T12:11:36.517Z,24.80
2018-02-22T12:14:04.719Z,24.00
2018-02-22T12:16:32.144Z,23.90
2018-02-22T12:19:00.376Z,23.90
2018-02-22T12:21:27.908Z,23.90
2018-02-22T12:23:55.332Z,23.50
2018-02-22T12:26:23.973Z,23.40
2018-02-22T12:28:51.418Z,23.40
2018-02-22T12:31:18.841Z,23.80
2018-02-22T12:33:46.277Z,25.20
2018-02-22T12:36:14.500Z,24.50
2018-02-22T12:38:41.912Z,24.40
2018-02-22T12:41:10.134Z,24.50
2018-02-22T12:43:37.571Z,24.50
2018-02-22T12:46:05.005Z,24.50
2018-02-22T12:48:33.220Z,24.50
2018-02-22T12:51:00.645Z,24.40
2018-02-22T12:53:29.256Z,24.10
2018-02-22T12:55:56.680Z,24.10
2018-02-22T12:58:24.889Z,24.40
2018-02-22T13:00:52.318Z,24.30
2018-02-22T13:03:20.530Z,23.60
2018-02-22T13:05:47.961Z,23.60
2018-02-22T13:08:16.322Z,23.40
2018-02-22T13:10:44.530Z,23.50
2018-02-22T13:13:11.982Z,23.40
2018-02-22T13:15:39.424Z,23.30
2018-02-22T13:18:07.649Z,23.50
2018-02-22T13:20:35.082Z,23.50
2018-02-22T13:23:02.521Z,23.50
2018-02-22T13:25:30.710Z,23.50
2018-02-22T13:27:58.155Z,23.50
2018-02-22T13:30:25.596Z,23.90
2018-02-22T13:33:05.609Z,23.80
2018-02-22T13:35:33.050Z,24.20
2018-02-22T13:38:15.021Z,23.90
2018-02-22T13:40:42.454Z,23.90
2018-02-22T13:43:10.658Z,24.80
2018-02-22T13:45:38.098Z,24.70
2018-02-22T13:48:06.291Z,24.40
2018-02-22T13:50:45.572Z,24.40
2018-02-22T13:53:13.003Z,25.50
2018-02-22T13:55:40.448Z,26.00
2018-02-22T13:58:07.901Z,26.00
2018-02-22T14:00:47.187Z,25.20
2018-02-22T14:03:14.610Z,25.10
2018-02-22T14:05:42.045Z,25.50
2018-02-22T14:08:09.487Z,25.30
2018-02-22T14:10:37.701Z,24.60
2018-02-22T14:13:05.119Z,24.60
2018-02-22T14:15:33.319Z,25.00
2018-02-22T14:18:00.761Z,25.00
2018-02-22T14:20:28.199Z,24.90
2018-02-22T14:22:56.401Z,24.90
2018-02-22T14:25:23.869Z,24.80
2018-02-22T14:27:51.292Z,24.70
2018-02-22T14:30:19.503Z,25.10
2018-02-22T14:32:46.950Z,25.00
2018-02-22T14:35:14.393Z,25.30
2018-02-22T14:37:41.833Z,24.90
2018-02-22T14:40:10.043Z,25.60
2018-02-22T14:42:37.476Z,25.60
2018-02-22T14:45:04.925Z,25.60
2018-02-22T14:47:33.117Z,27.10
2018-02-22T14:50:00.554Z,27.10
2018-02-22T14:52:28.776Z,27.90
2018-02-22T14:54:56.189Z,27.80
2018-02-22T14:57:24.385Z,29.60
2018-02-22T14:59:51.823Z,29.50
2018-02-22T15:02:23.962Z,31.80
2018-02-22T15:04:51.398Z,31.80
2018-02-22T15:07:18.833Z,32.30
2018-02-22T15:09:46.281Z,32.70
2018-02-22T15:12:13.710Z,33.30
2018-02-22T15:14:41.171Z,33.90
2018-02-22T15:17:08.576Z,35.10
2018-02-22T15:19:36.508Z,35.90
2018-02-22T15:22:04.700Z,37.20
2018-02-22T15:24:32.171Z,37.20
2018-02-22T15:26:59.617Z,37.40
2018-02-22T15:29:27.050Z,37.50
2018-02-22T15:31:55.256Z,38.20
2018-02-22T15:34:22.695Z,38.10
2018-02-22T15:36:50.923Z,37.90
2018-02-22T15:39:18.354Z,37.90
2018-02-22T15:41:45.803Z,37.10
2018-02-22T15:44:13.257Z,36.30
2018-02-22T15:46:40.693Z,36.00
2018-02-22T15:49:08.915Z,36.20
2018-02-22T15:51:36.348Z,36.20
2018-02-22T15:54:03.772Z,36.50
2018-02-22T15:56:32.015Z,37.60
2018-02-22T15:58:59.462Z,37.50
2018-02-22T16:01:26.892Z,38.10
2018-02-22T16:03:54.354Z,38.90
2018-02-22T16:06:22.538Z,39.00
2018-02-22T16:08:49.993Z,38.90
2018-02-22T16:11:17.432Z,39.40
2018-02-22T16:13:44.861Z,40.60
2018-02-22T16:16:12.292Z,41.50
2018-02-22T16:18:39.721Z,41.90
2018-02-22T16:21:07.998Z,42.20
2018-02-22T16:23:35.406Z,42.70
2018-02-22T16:26:02.861Z,42.90
2018-02-22T16:28:30.305Z,43.80
2018-02-22T16:30:57.761Z,44.00
2018-02-22T16:33:25.198Z,44.70
2018-02-22T16:35:52.638Z,45.40
2018-02-22T16:38:20.070Z,45.90
2018-02-22T16:40:48.292Z,46.40
2018-02-22T16:43:15.700Z,46.40
2018-02-22T16:45:43.907Z,47.20
2018-02-22T16:48:11.336Z,47.20
2018-02-22T16:50:39.534Z,48.30
2018-02-22T16:53:06.972Z,48.20
2018-02-22T16:55:34.410Z,48.40
2018-02-22T16:58:01.846Z,48.60
2018-02-22T17:00:29.277Z,48.80
2018-02-22T17:02:56.713Z,49.10
2018-02-22T17:05:24.164Z,49.30
2018-02-22T17:07:52.364Z,49.70
2018-02-22T17:10:19.785Z,49.70
2018-02-22T17:12:47.978Z,50.10
2018-02-22T17:15:15.396Z,50.10
2018-02-22T17:17:44.597Z,50.10
2018-02-22T17:20:12.025Z,50.50
2018-02-22T17:22:39.461Z,51.20
2018-02-22T17:25:06.882Z,51.20
2018-02-22T17:27:40.778Z,51.30
2018-02-22T17:30:13.752Z,51.20
2018-02-22T17:32:42.977Z,51.10
2018-02-22T17:35:11.181Z,51.20
2018-02-22T17:37:38.638Z,51.10
2018-02-22T17:40:11.747Z,51.30
2018-02-22T17:45:31.913Z,52.30
2018-02-22T17:48:00.119Z,53.30
2018-02-22T17:50:27.554Z,53.30
2018-02-22T17:52:55.446Z,53.30
2018-02-22T17:55:22.885Z,53.30
2018-02-22T17:57:50.322Z,53.80
2018-02-22T18:00:18.517Z,53.60
2018-02-22T18:02:45.953Z,53.60
2018-02-22T18:05:14.822Z,53.60
2018-02-22T18:07:42.274Z,53.60
2018-02-22T18:10:09.686Z,53.80
2018-02-22T18:12:37.173Z,54.10
2018-02-22T18:15:05.316Z,54.30
2018-02-22T18:17:32.748Z,54.30
2018-02-22T18:20:00.966Z,54.50
2018-02-22T18:22:28.405Z,54.50
2018-02-22T18:24:55.825Z,54.30
2018-02-22T18:27:23.267Z,54.50
2018-02-22T18:29:50.760Z,54.70
2018-02-22T18:32:18.914Z,54.80
2018-02-22T18:34:46.372Z,54.80
2018-02-22T18:37:19.617Z,55.70
2018-02-22T18:39:47.965Z,55.50
2018-02-22T18:42:20.222Z,56.10
2018-02-22T18:44:53.329Z,56.50
2018-02-22T18:47:20.810Z,56.50
2018-02-22T18:49:48.243Z,56.70
2018-02-22T18:52:17.386Z,56.60
2018-02-22T18:54:44.863Z,56.50
2018-02-22T18:57:12.256Z,57.10
2018-02-22T18:59:39.689Z,57.10
2018-02-22T19:02:07.142Z,56.90
2018-02-22T19:04:34.587Z,56.70
2018-02-22T19:07:02.021Z,57.10
2018-02-22T19:09:29.468Z,57.40
2018-02-22T19:11:56.898Z,57.00
2018-02-22T19:14:24.377Z,57.10
2018-02-22T19:16:51.799Z,57.70
2018-02-22T19:19:19.998Z,58.10
2018-02-22T19:21:47.429Z,58.00
2018-02-22T19:24:15.113Z,58.60
2018-02-22T19:26:42.545Z,58.00
2018-02-22T19:29:09.979Z,58.10
2018-02-22T19:31:38.169Z,58.90
2018-02-22T19:34:05.606Z,58.90
2018-02-22T19:36:33.019Z,59.30
2018-02-22T19:39:00.439Z,59.20
2018-02-22T19:41:27.877Z,59.20
2018-02-22T19:43:55.316Z,58.70
2018-02-22T19:46:22.734Z,59.00
2018-02-22T19:48:50.943Z,59.10
2018-02-22T19:51:18.409Z,59.00
2018-02-22T19:53:45.853Z,59.10
2018-02-22T19:56:13.296Z,59.30
2018-02-22T19:58:40.738Z,59.40
2018-02-22T20:01:09.325Z,59.50
2018-02-22T20:03:37.526Z,59.50
2018-02-22T20:06:04.950Z,59.50
2018-02-22T20:08:33.160Z,59.90
2018-02-22T20:11:00.589Z,59.80
2018-02-22T20:13:28.791Z,60.50
2018-02-22T20:15:56.291Z,60.50
2018-02-22T20:18:23.706Z,60.40
2018-02-22T20:20:51.133Z,60.40
2018-02-22T20:23:19.344Z,60.70
2018-02-22T20:25:46.794Z,60.80
2018-02-22T20:28:14.250Z,61.50
2018-02-22T20:30:41.670Z,61.60
2018-02-22T20:33:09.111Z,61.50
2018-02-22T20:35:36.623Z,62.20
2018-02-22T20:38:04.818Z,61.90
2018-02-22T20:40:32.355Z,61.90
2018-02-22T20:42:59.737Z,62.10
2018-02-22T20:45:27.176Z,62.30
2018-02-22T20:47:54.633Z,62.00
2018-02-22T20:50:22.085Z,62.10
2018-02-22T20:52:51.691Z,62.60
2018-02-22T20:55:19.192Z,63.60
2018-02-22T20:57:46.653Z,63.50
2018-02-22T21:00:14.092Z,63.90
2018-02-22T21:02:41.540Z,64.80
2018-02-22T21:05:09.012Z,63.80
2018-02-22T21:07:36.579Z,64.80
2018-02-22T21:10:04.040Z,65.50
2018-02-22T21:12:31.491Z,65.70
2018-02-22T21:14:58.928Z,65.90
2018-02-22T21:17:26.353Z,65.60
2018-02-22T21:19:54.594Z,65.20
2018-02-22T21:22:22.098Z,65.10
2018-02-22T21:24:49.589Z,65.90
2018-02-22T21:27:17.487Z,66.10
2018-02-22T21:29:44.958Z,65.60
2018-02-22T21:32:12.390Z,65.40
2018-02-22T21:34:40.589Z,66.50
2018-02-22T21:37:08.013Z,66.50
2018-02-22T21:39:35.464Z,66.30
2018-02-22T21:42:02.891Z,67.00
2018-02-22T21:44:30.325Z,67.30
2018-02-22T21:46:58.529Z,67.50
2018-02-22T21:49:25.949Z,67.50
2018-02-22T21:51:53.373Z,67.80
2018-02-22T21:54:20.809Z,68.00
2018-02-22T21:56:48.226Z,67.60
2018-02-22T21:59:16.425Z,67.60
2018-02-22T22:01:43.845Z,67.60
2018-02-22T22:04:11.294Z,67.90
2018-02-22T22:06:38.728Z,67.90
2018-02-22T22:09:06.179Z,68.30
2018-02-22T22:11:34.353Z,68.80
2018-02-22T22:14:01.800Z,69.00
2018-02-22T22:16:29.220Z,69.60
2018-02-22T22:18:56.660Z,69.80
2018-02-22T22:21:24.076Z,70.00
2018-02-22T22:23:51.521Z,70.00
2018-02-22T22:26:18.971Z,69.70
2018-02-22T22:28:46.403Z,69.90
2018-02-22T22:31:13.836Z,70.00
2018-02-22T22:33:41.272Z,70.20
2018-02-22T22:36:08.712Z,70.60
2018-02-22T22:38:36.148Z,71.00
2018-02-22T22:41:04.345Z,71.60
2018-02-22T22:43:31.775Z,71.40
2018-02-22T22:46:00.009Z,72.20
2018-02-22T22:48:27.449Z,72.20
2018-02-22T22:50:54.912Z,72.30
2018-02-22T22:53:22.344Z,72.50
2018-02-22T22:55:49.798Z,73.10
2018-02-22T22:58:18.451Z,72.80
2018-02-22T23:00:46.749Z,73.40
2018-02-22T23:03:14.960Z,73.00
2018-02-22T23:05:42.408Z,72.90
2018-02-22T23:08:09.841Z,72.70
2018-02-22T23:10:38.048Z,73.20
2018-02-22T23:13:05.485Z,73.00
2018-02-22T23:15:32.938Z,73.60
2018-02-22T23:18:00.396Z,73.60
2018-02-22T23:20:27.844Z,73.50
2018-02-22T23:22:56.693Z,74.50
2018-02-22T23:25:24.145Z,74.30
2018-02-22T23:27:51.563Z,74.70
2018-02-22T23:30:19.009Z,74.60
2018-02-22T23:32:47.218Z,74.60
2018-02-22T23:35:14.641Z,74.50
2018-02-22T23:37:42.832Z,74.10
2018-02-22T23:40:16.659Z,74.10
2018-02-22T23:42:44.075Z,73.70
2018-02-22T23:45:12.304Z,74.10
2018-02-22T23:47:39.726Z,73.90
2018-02-22T23:50:07.161Z,74.20
2018-02-22T23:52:35.358Z,74.50
2018-02-22T23:55:03.551Z,74.30
2018-02-22T23:57:30.981Z,74.20
2018-02-22T23:59:59.171Z,74.20
